sensor_id;sensor_type;location;lat;lon;timestamp;pressure;altitude;pressure_sealevel;temperature;humidity
12913;BME280;6524;51.368;11.984;2023-03-31T04:04:04;99113.41;;;8.93;59.50
12913;BME280;6524;51.368;11.984;2023-03-31T04:09:04;99100.22;;;8.59;60.47
12913;BME280;6524;51.368;11.984;2023-03-31T04:14:04;99097.13;;;8.99;59.33
12913;BME280;6524;51.368;11.984;2023-03-31T04:19:05;99091.84;;;8.76;60.10
12913;BME280;6524;51.368;11.984;2023-03-31T04:24:06;99082.63;;;8.71;59.58
12913;BME280;6524;51.368;11.984;2023-03-31T04:29:06;99080.13;;;8.47;61.03
12913;BME280;6524;51.368;11.984;2023-03-31T04:34:08;99070.78;;;8.87;60.01
12913;BME280;6524;51.368;11.984;2023-03-31T04:39:14;99054.41;;;8.50;60.96
12913;BME280;6524;51.368;11.984;2023-03-31T04:44:14;99049.88;;;8.86;59.60
12913;BME280;6524;51.368;11.984;2023-03-31T04:49:14;99041.94;;;9.29;58.51
12913;BME280;6524;51.368;11.984;2023-03-31T04:54:15;99030.72;;;9.16;58.92
12913;BME280;6524;51.368;11.984;2023-03-31T04:59:15;99022.63;;;9.40;58.47
12913;BME280;6524;51.368;11.984;2023-03-31T05:04:16;99004.94;;;8.99;60.32
12913;BME280;6524;51.368;11.984;2023-03-31T05:09:16;99002.56;;;8.73;60.48
12913;BME280;6524;51.368;11.984;2023-03-31T05:14:16;98986.03;;;9.05;60.40
12913;BME280;6524;51.368;11.984;2023-03-31T05:19:17;98973.94;;;9.02;61.10
12913;BME280;6524;51.368;11.984;2023-03-31T05:24:17;98968.28;;;9.07;61.03
12913;BME280;6524;51.368;11.984;2023-03-31T05:29:18;98945.19;;;9.31;60.21
12913;BME280;6524;51.368;11.984;2023-03-31T05:34:19;98929.06;;;9.25;60.52
12913;BME280;6524;51.368;11.984;2023-03-31T05:39:19;98919.44;;;8.82;62.31
12913;BME280;6524;51.368;11.984;2023-03-31T05:44:20;98921.31;;;9.54;61.03
12913;BME280;6524;51.368;11.984;2023-03-31T05:49:20;98912.47;;;9.13;62.17
12913;BME280;6524;51.368;11.984;2023-03-31T05:54:21;98910.00;;;9.00;62.88
12913;BME280;6524;51.368;11.984;2023-03-31T05:59:21;98908.75;;;9.16;62.36
12913;BME280;6524;51.368;11.984;2023-03-31T06:04:22;98918.84;;;9.31;61.71
12913;BME280;6524;51.368;11.984;2023-03-31T06:09:24;98920.38;;;9.55;61.21
12913;BME280;6524;51.368;11.984;2023-03-31T06:14:26;98923.22;;;9.21;62.11
12913;BME280;6524;51.368;11.984;2023-03-31T06:19:27;98925.66;;;9.55;60.99
12913;BME280;6524;51.368;11.984;2023-03-31T06:24:27;98911.13;;;9.40;61.10
12913;BME280;6524;51.368;11.984;2023-03-31T06:29:27;98908.41;;;10.02;59.71
12913;BME280;6524;51.368;11.984;2023-03-31T06:34:28;98905.28;;;9.88;59.17
12913;BME280;6524;51.368;11.984;2023-03-31T06:39:28;98899.78;;;10.60;57.86
12913;BME280;6524;51.368;11.984;2023-03-31T06:44:28;98895.78;;;10.06;58.99
12913;BME280;6524;51.368;11.984;2023-03-31T06:49:29;98886.94;;;9.86;59.25
12913;BME280;6524;51.368;11.984;2023-03-31T06:54:29;98866.75;;;10.06;59.31
12913;BME280;6524;51.368;11.984;2023-03-31T06:59:30;98858.50;;;10.40;58.79
12913;BME280;6524;51.368;11.984;2023-03-31T07:04:30;98858.09;;;9.85;59.92
12913;BME280;6524;51.368;11.984;2023-03-31T07:09:30;98836.38;;;9.71;60.16
12913;BME280;6524;51.368;11.984;2023-03-31T07:14:31;98830.78;;;9.55;61.13
12913;BME280;6524;51.368;11.984;2023-03-31T07:19:31;98834.28;;;9.34;61.78
12913;BME280;6524;51.368;11.984;2023-03-31T07:24:32;98846.50;;;10.16;59.25
12913;BME280;6524;51.368;11.984;2023-03-31T07:29:32;98851.41;;;10.60;58.61
12913;BME280;6524;51.368;11.984;2023-03-31T07:34:32;98854.75;;;9.83;60.02
12913;BME280;6524;51.368;11.984;2023-03-31T07:39:34;98864.13;;;9.75;60.53
12913;BME280;6524;51.368;11.984;2023-03-31T07:44:36;98856.53;;;9.51;61.57
12913;BME280;6524;51.368;11.984;2023-03-31T07:49:36;98839.69;;;9.73;61.16
12913;BME280;6524;51.368;11.984;2023-03-31T07:54:37;98828.81;;;9.88;60.60
12913;BME280;6524;51.368;11.984;2023-03-31T07:59:37;98828.50;;;10.80;57.94
12913;BME280;6524;51.368;11.984;2023-03-31T08:04:38;98820.56;;;10.41;58.85
12913;BME280;6524;51.368;11.984;2023-03-31T08:09:43;98816.81;;;10.53;58.59
12913;BME280;6524;51.368;11.984;2023-03-31T08:14:44;98805.16;;;10.46;59.65
12913;BME280;6524;51.368;11.984;2023-03-31T08:19:44;98799.72;;;11.06;57.61
12913;BME280;6524;51.368;11.984;2023-03-31T08:24:45;98794.56;;;11.04;57.58
12913;BME280;6524;51.368;11.984;2023-03-31T08:29:46;98792.38;;;10.80;57.51
12913;BME280;6524;51.368;11.984;2023-03-31T08:34:47;98783.47;;;10.91;58.55
12913;BME280;6524;51.368;11.984;2023-03-31T08:39:47;98778.63;;;10.09;61.38
12913;BME280;6524;51.368;11.984;2023-03-31T08:45:40;98751.78;;;10.71;59.48
12913;BME280;6524;51.368;11.984;2023-03-31T08:50:26;98759.03;;;10.11;60.39
12913;BME280;6524;51.368;11.984;2023-03-31T08:55:45;98724.59;;;10.42;60.83
12913;BME280;6524;51.368;11.984;2023-03-31T09:00:57;98729.28;;;10.67;60.94
12913;BME280;6524;51.368;11.984;2023-03-31T09:06:10;98732.63;;;9.82;62.75
12913;BME280;6524;51.368;11.984;2023-03-31T09:11:25;98725.72;;;10.00;62.48
12913;BME280;6524;51.368;11.984;2023-03-31T09:16:31;98712.13;;;9.45;64.38
12913;BME280;6524;51.368;11.984;2023-03-31T09:21:39;98714.47;;;9.39;63.79
12913;BME280;6524;51.368;11.984;2023-03-31T09:26:48;98705.81;;;9.17;64.77
12913;BME280;6524;51.368;11.984;2023-03-31T09:31:52;98700.34;;;9.40;63.62
12913;BME280;6524;51.368;11.984;2023-03-31T09:36:53;98684.91;;;9.25;62.95
12913;BME280;6524;51.368;11.984;2023-03-31T09:41:54;98679.91;;;9.22;62.70
12913;BME280;6524;51.368;11.984;2023-03-31T09:46:56;98659.19;;;9.58;62.53
12913;BME280;6524;51.368;11.984;2023-03-31T09:52:02;98659.63;;;9.92;61.34
12913;BME280;6524;51.368;11.984;2023-03-31T09:57:13;98650.50;;;9.87;61.42
12913;BME280;6524;51.368;11.984;2023-03-31T10:07:23;98652.38;;;9.46;64.02
12913;BME280;6524;51.368;11.984;2023-03-31T10:12:27;98636.50;;;9.17;66.04
12913;BME280;6524;51.368;11.984;2023-03-31T10:17:27;98633.28;;;10.02;64.53
12913;BME280;6524;51.368;11.984;2023-03-31T10:22:29;98618.03;;;9.96;65.29
12913;BME280;6524;51.368;11.984;2023-03-31T10:27:31;98613.53;;;9.57;66.93
12913;BME280;6524;51.368;11.984;2023-03-31T10:32:38;98605.25;;;9.91;66.66
12913;BME280;6524;51.368;11.984;2023-03-31T10:37:40;98598.88;;;9.94;66.17
12913;BME280;6524;51.368;11.984;2023-03-31T10:42:45;98605.78;;;9.37;68.25
12913;BME280;6524;51.368;11.984;2023-03-31T10:47:48;98594.06;;;9.00;70.75
12913;BME280;6524;51.368;11.984;2023-03-31T10:52:49;98590.31;;;9.03;70.50
12913;BME280;6524;51.368;11.984;2023-03-31T10:57:55;98590.25;;;9.33;69.48
12913;BME280;6524;51.368;11.984;2023-03-31T11:18:56;98569.31;;;9.71;68.67
12913;BME280;6524;51.368;11.984;2023-03-31T11:29:34;98557.03;;;10.18;67.21
12913;BME280;6524;51.368;11.984;2023-03-31T11:39:46;98537.00;;;9.40;69.64
12913;BME280;6524;51.368;11.984;2023-03-31T11:44:52;98530.03;;;9.97;67.39
12913;BME280;6524;51.368;11.984;2023-03-31T11:49:59;98525.34;;;9.52;68.88
12913;BME280;6524;51.368;11.984;2023-03-31T11:55:20;98515.75;;;9.70;68.84
12913;BME280;6524;51.368;11.984;2023-03-31T12:00:24;98518.97;;;9.25;69.45
12913;BME280;6524;51.368;11.984;2023-03-31T12:05:29;98516.75;;;9.30;68.64
12913;BME280;6524;51.368;11.984;2023-03-31T12:10:40;98513.63;;;10.03;67.58
12913;BME280;6524;51.368;11.984;2023-03-31T12:15:51;98515.16;;;9.76;69.08
12913;BME280;6524;51.368;11.984;2023-03-31T12:21:02;98503.38;;;10.65;66.47
12913;BME280;6524;51.368;11.984;2023-03-31T12:31:39;98483.22;;;10.36;67.06
12913;BME280;6524;51.368;11.984;2023-03-31T12:57:42;98463.50;;;10.86;61.73
12913;BME280;6524;51.368;11.984;2023-03-31T13:02:43;98456.44;;;11.04;60.63
12913;BME280;6524;51.368;11.984;2023-03-31T13:07:43;98451.38;;;11.73;59.08
12913;BME280;6524;51.368;11.984;2023-03-31T13:13:05;98458.63;;;11.71;57.59
12913;BME280;6524;51.368;11.984;2023-03-31T13:18:18;98455.56;;;13.35;54.85
12913;BME280;6524;51.368;11.984;2023-03-31T13:23:23;98464.22;;;12.62;54.92
12913;BME280;6524;51.368;11.984;2023-03-31T13:28:36;98446.91;;;13.00;54.32
12913;BME280;6524;51.368;11.984;2023-03-31T13:33:58;98434.34;;;13.35;52.79
12913;BME280;6524;51.368;11.984;2023-03-31T14:22:42;98434.94;;;10.99;61.05
12913;BME280;6524;51.368;11.984;2023-03-31T14:28:15;98431.25;;;10.46;61.83
12913;BME280;6524;51.368;11.984;2023-03-31T14:33:37;98418.41;;;10.06;64.04
12913;BME280;6524;51.368;11.984;2023-03-31T14:38:42;98412.53;;;10.12;62.97
12913;BME280;6524;51.368;11.984;2023-03-31T14:43:47;98399.94;;;9.59;61.30
12913;BME280;6524;51.368;11.984;2023-03-31T14:48:50;98392.41;;;9.84;60.77
12913;BME280;6524;51.368;11.984;2023-03-31T14:53:58;98377.25;;;9.86;59.34
12913;BME280;6524;51.368;11.984;2023-03-31T14:58:58;98380.72;;;9.86;58.74
12913;BME280;6524;51.368;11.984;2023-03-31T15:04:05;98381.56;;;10.14;55.84
12913;BME280;6524;51.368;11.984;2023-03-31T15:09:12;98379.00;;;10.86;54.32
12913;BME280;6524;51.368;11.984;2023-03-31T15:14:14;98375.56;;;11.29;53.50
12913;BME280;6524;51.368;11.984;2023-03-31T15:19:22;98364.53;;;10.90;53.54
12913;BME280;6524;51.368;11.984;2023-03-31T15:24:24;98376.56;;;10.39;54.54
12913;BME280;6524;51.368;11.984;2023-03-31T15:29:32;98385.81;;;10.25;54.91
12913;BME280;6524;51.368;11.984;2023-03-31T15:34:34;98379.81;;;10.05;54.96
12913;BME280;6524;51.368;11.984;2023-03-31T15:39:36;98371.91;;;10.05;55.65
12913;BME280;6524;51.368;11.984;2023-03-31T15:44:46;98361.03;;;10.36;55.30
12913;BME280;6524;51.368;11.984;2023-03-31T15:49:50;98356.56;;;9.91;56.45
12913;BME280;6524;51.368;11.984;2023-03-31T15:54:51;98348.03;;;9.69;56.27
12913;BME280;6524;51.368;11.984;2023-03-31T15:59:52;98350.59;;;10.16;55.97
12913;BME280;6524;51.368;11.984;2023-03-31T16:04:58;98370.53;;;10.01;55.86
12913;BME280;6524;51.368;11.984;2023-03-31T16:10:05;98375.66;;;10.02;54.98
12913;BME280;6524;51.368;11.984;2023-03-31T16:15:11;98377.84;;;10.07;55.08
12913;BME280;6524;51.368;11.984;2023-03-31T16:20:20;98388.09;;;10.10;56.13
12913;BME280;6524;51.368;11.984;2023-03-31T16:25:23;98392.13;;;9.67;57.17
12913;BME280;6524;51.368;11.984;2023-03-31T16:30:37;98393.66;;;9.70;56.83
12913;BME280;6524;51.368;11.984;2023-03-31T16:35:42;98398.28;;;10.05;56.26
12913;BME280;6524;51.368;11.984;2023-03-31T16:40:48;98402.78;;;9.38;58.03
12913;BME280;6524;51.368;11.984;2023-03-31T16:45:51;98400.94;;;10.05;56.88
12913;BME280;6524;51.368;11.984;2023-03-31T16:50:53;98391.97;;;9.31;58.66
12913;BME280;6524;51.368;11.984;2023-03-31T16:55:54;98398.34;;;9.76;57.58
12913;BME280;6524;51.368;11.984;2023-03-31T17:00:57;98397.50;;;9.38;59.31
12913;BME280;6524;51.368;11.984;2023-03-31T17:06:02;98400.47;;;9.06;59.43
12913;BME280;6524;51.368;11.984;2023-03-31T17:11:09;98395.88;;;9.27;59.78
12913;BME280;6524;51.368;11.984;2023-03-31T17:16:11;98400.41;;;9.92;57.71
12913;BME280;6524;51.368;11.984;2023-03-31T17:21:13;98400.63;;;9.80;58.39
12913;BME280;6524;51.368;11.984;2023-03-31T17:26:14;98417.13;;;10.38;56.95
12913;BME280;6524;51.368;11.984;2023-03-31T17:31:17;98424.06;;;9.84;58.71
12913;BME280;6524;51.368;11.984;2023-03-31T17:36:18;98420.06;;;9.60;59.76
12913;BME280;6524;51.368;11.984;2023-03-31T17:41:18;98427.16;;;9.50;59.17
12913;BME280;6524;51.368;11.984;2023-03-31T17:46:20;98431.84;;;9.66;59.21
12913;BME280;6524;51.368;11.984;2023-03-31T17:51:20;98439.19;;;9.62;59.07
12913;BME280;6524;51.368;11.984;2023-03-31T17:56:22;98439.88;;;9.74;59.17
12913;BME280;6524;51.368;11.984;2023-03-31T18:01:22;98438.63;;;10.15;57.79
12913;BME280;6524;51.368;11.984;2023-03-31T18:06:23;98441.16;;;10.07;58.37
12913;BME280;6524;51.368;11.984;2023-03-31T18:11:25;98440.84;;;10.10;58.24
12913;BME280;6524;51.368;11.984;2023-03-31T18:16:26;98450.22;;;9.95;58.74
12913;BME280;6524;51.368;11.984;2023-03-31T18:21:27;98448.97;;;9.89;58.62
12913;BME280;6524;51.368;11.984;2023-03-31T18:26:28;98454.81;;;9.93;59.05
12913;BME280;6524;51.368;11.984;2023-03-31T18:31:28;98468.09;;;10.01;59.12
12913;BME280;6524;51.368;11.984;2023-03-31T18:36:28;98470.34;;;9.96;59.90
12913;BME280;6524;51.368;11.984;2023-03-31T18:41:29;98474.16;;;9.45;61.22
12913;BME280;6524;51.368;11.984;2023-03-31T18:46:29;98467.41;;;9.13;62.15
12913;BME280;6524;51.368;11.984;2023-03-31T18:51:30;98457.38;;;9.65;60.55
12913;BME280;6524;51.368;11.984;2023-03-31T18:56:30;98461.59;;;9.00;62.47
12913;BME280;6524;51.368;11.984;2023-03-31T19:01:31;98460.47;;;8.93;63.38
12913;BME280;6524;51.368;11.984;2023-03-31T19:06:34;98469.81;;;8.66;64.61
12913;BME280;6524;51.368;11.984;2023-03-31T19:11:36;98469.16;;;8.74;64.85
12913;BME280;6524;51.368;11.984;2023-03-31T19:16:37;98456.03;;;8.83;65.12
12913;BME280;6524;51.368;11.984;2023-03-31T19:21:41;98462.69;;;8.87;65.63
12913;BME280;6524;51.368;11.984;2023-03-31T19:26:42;98467.94;;;9.07;64.71
12913;BME280;6524;51.368;11.984;2023-03-31T19:31:43;98469.19;;;9.22;64.45
12913;BME280;6524;51.368;11.984;2023-03-31T19:36:46;98458.25;;;9.37;63.83
12913;BME280;6524;51.368;11.984;2023-03-31T19:41:46;98463.22;;;9.20;64.38
12913;BME280;6524;51.368;11.984;2023-03-31T19:46:47;98466.13;;;8.98;65.27
12913;BME280;6524;51.368;11.984;2023-03-31T19:51:47;98459.50;;;8.94;64.86
12913;BME280;6524;51.368;11.984;2023-03-31T19:56:47;98460.47;;;9.22;64.52
12913;BME280;6524;51.368;11.984;2023-03-31T20:01:49;98454.94;;;8.96;64.81
12913;BME280;6524;51.368;11.984;2023-03-31T20:06:49;98456.53;;;8.58;64.74
12913;BME280;6524;51.368;11.984;2023-03-31T20:11:52;98452.16;;;8.37;65.00
12913;BME280;6524;51.368;11.984;2023-03-31T20:16:53;98451.88;;;8.91;63.98
12913;BME280;6524;51.368;11.984;2023-03-31T20:21:54;98440.13;;;8.45;65.30
12913;BME280;6524;51.368;11.984;2023-03-31T20:26:56;98446.47;;;8.32;66.18
12913;BME280;6524;51.368;11.984;2023-03-31T20:31:58;98455.97;;;7.83;67.86
12913;BME280;6524;51.368;11.984;2023-03-31T20:36:58;98451.56;;;8.74;65.00
12913;BME280;6524;51.368;11.984;2023-03-31T20:41:59;98466.38;;;8.25;66.85
12913;BME280;6524;51.368;11.984;2023-03-31T20:46:59;98451.31;;;8.77;64.44
12913;BME280;6524;51.368;11.984;2023-03-31T20:52:00;98452.09;;;8.68;64.82
12913;BME280;6524;51.368;11.984;2023-03-31T20:57:01;98452.91;;;8.59;64.22
12913;BME280;6524;51.368;11.984;2023-03-31T21:02:04;98448.94;;;8.74;63.95
12913;BME280;6524;51.368;11.984;2023-03-31T21:07:05;98465.41;;;8.26;65.01
12913;BME280;6524;51.368;11.984;2023-03-31T21:12:06;98462.91;;;8.75;63.15
12913;BME280;6524;51.368;11.984;2023-03-31T21:17:06;98449.88;;;8.63;63.63
12913;BME280;6524;51.368;11.984;2023-03-31T21:22:07;98460.66;;;8.70;63.39
12913;BME280;6524;51.368;11.984;2023-03-31T21:27:08;98464.25;;;8.50;63.57
12913;BME280;6524;51.368;11.984;2023-03-31T21:32:08;98463.31;;;8.70;63.10
12913;BME280;6524;51.368;11.984;2023-03-31T21:37:09;98459.34;;;8.85;62.08
12913;BME280;6524;51.368;11.984;2023-03-31T21:42:09;98469.34;;;9.30;61.09
12913;BME280;6524;51.368;11.984;2023-03-31T21:47:10;98469.06;;;9.33;60.65
12913;BME280;6524;51.368;11.984;2023-03-31T21:52:11;98464.75;;;9.32;61.13
12913;BME280;6524;51.368;11.984;2023-03-31T21:57:12;98464.34;;;9.37;61.08
12913;BME280;6524;51.368;11.984;2023-03-31T22:02:13;98465.97;;;9.48;61.27
12913;BME280;6524;51.368;11.984;2023-03-31T22:07:14;98479.31;;;9.37;61.44
12913;BME280;6524;51.368;11.984;2023-03-31T22:12:14;98472.38;;;9.26;61.73
12913;BME280;6524;51.368;11.984;2023-03-31T22:17:16;98474.47;;;9.13;62.17
12913;BME280;6524;51.368;11.984;2023-03-31T22:22:17;98476.28;;;9.22;62.12
12913;BME280;6524;51.368;11.984;2023-03-31T22:27:17;98477.66;;;9.26;61.94
12913;BME280;6524;51.368;11.984;2023-03-31T22:32:18;98478.34;;;9.38;61.41
12913;BME280;6524;51.368;11.984;2023-03-31T22:37:20;98483.34;;;9.02;61.84
12913;BME280;6524;51.368;11.984;2023-03-31T22:42:20;98484.84;;;9.04;61.81
12913;BME280;6524;51.368;11.984;2023-03-31T22:47:21;98482.63;;;8.80;62.43
12913;BME280;6524;51.368;11.984;2023-03-31T22:52:21;98490.03;;;8.56;63.05
12913;BME280;6524;51.368;11.984;2023-03-31T22:57:21;98487.78;;;8.51;63.86
12913;BME280;6524;51.368;11.984;2023-03-31T23:02:23;98479.78;;;8.22;64.72
12913;BME280;6524;51.368;11.984;2023-03-31T23:07:24;98486.03;;;8.21;64.85
12913;BME280;6524;51.368;11.984;2023-03-31T23:12:26;98488.00;;;8.38;64.30
12913;BME280;6524;51.368;11.984;2023-03-31T23:17:26;98481.56;;;8.12;64.83
12913;BME280;6524;51.368;11.984;2023-03-31T23:22:27;98482.59;;;8.00;64.37
12913;BME280;6524;51.368;11.984;2023-03-31T23:27:28;98481.41;;;8.44;63.73
12913;BME280;6524;51.368;11.984;2023-03-31T23:32:31;98493.19;;;8.50;63.55
12913;BME280;6524;51.368;11.984;2023-03-31T23:37:32;98488.97;;;8.28;64.65
12913;BME280;6524;51.368;11.984;2023-03-31T23:42:33;98485.91;;;8.32;64.15
12913;BME280;6524;51.368;11.984;2023-03-31T23:47:33;98483.19;;;8.43;64.15
12913;BME280;6524;51.368;11.984;2023-03-31T23:52:33;98481.13;;;8.07;64.25
12913;BME280;6524;51.368;11.984;2023-03-31T23:57:35;98482.09;;;9.06;61.65
